Time;durP1;ratioP1;P1;durP2;ratioP2;P2;SDS_P1;SDS_P2;PMS_P1;PMS_P2;Temp;Humidity;BMP_temperature;BMP_pressure;BME280_temperature;BME280_humidity;BME280_pressure;Samples;Min_cycle;Max_cycle;Signal;HPM_P1;HPM_P2
2022/04/21 00:00:28;;;;;;;5.28;4.78;;;7.20;99.90;;;;;;4952750;28;20300;-68
2022/04/21 00:02:55;;;;;;;5.30;4.90;;;7.20;99.90;;;;;;4952675;28;20611;-67
2022/04/21 00:05:23;;;;;;;8.38;5.45;;;7.20;99.90;;;;;;4952885;28;20851;-68
2022/04/21 00:07:50;;;;;;;5.32;4.93;;;7.20;99.90;;;;;;4952629;28;20205;-68
2022/04/21 00:10:17;;;;;;;4.25;3.95;;;7.20;99.90;;;;;;4952885;28;20209;-67
2022/04/21 00:12:44;;;;;;;5.28;4.85;;;7.20;99.90;;;;;;4955868;28;20628;-67
2022/04/21 00:15:13;;;;;;;5.85;5.10;;;7.20;99.90;;;;;;4963891;28;20260;-67
2022/04/21 00:17:39;;;;;;;5.22;4.80;;;7.20;99.90;;;;;;4951512;28;20205;-67
2022/04/21 00:20:08;;;;;;;5.43;4.90;;;7.20;99.90;;;;;;4951280;28;20665;-67
2022/04/21 00:25:19;;;;;;;5.65;5.20;;;7.10;99.90;;;;;;4951730;29;20203;-67
2022/04/21 00:27:46;;;;;;;4.55;4.25;;;7.10;99.90;;;;;;4950905;28;20263;-67
2022/04/21 00:30:17;;;;;;;6.65;5.18;;;7.00;99.90;;;;;;4951206;28;20296;-68
2022/04/21 00:32:44;;;;;;;4.57;4.28;;;7.00;99.90;;;;;;4951254;28;20299;-68
2022/04/21 00:35:12;;;;;;;6.18;5.68;;;7.00;99.90;;;;;;4951532;28;20336;-67
2022/04/21 00:37:47;;;;;;;5.80;5.32;;;6.90;99.90;;;;;;4951572;28;20209;-67
2022/04/21 00:40:14;;;;;;;5.45;5.00;;;6.90;99.90;;;;;;4950982;28;20204;-67
2022/04/21 00:42:42;;;;;;;5.18;4.78;;;6.90;99.90;;;;;;4950476;28;20608;-67
2022/04/21 00:45:10;;;;;;;4.40;4.05;;;6.80;99.90;;;;;;4951247;28;20201;-67
2022/04/21 00:47:40;;;;;;;5.70;5.18;;;6.80;99.90;;;;;;4955514;28;20213;-67
2022/04/21 00:50:11;;;;;;;4.55;4.15;;;6.80;99.90;;;;;;4958868;28;20300;-68
2022/04/21 00:52:40;;;;;;;5.47;4.97;;;6.70;99.90;;;;;;4959550;28;20324;-67
2022/04/21 00:55:07;;;;;;;4.60;4.30;;;6.70;99.90;;;;;;4958554;28;20209;-68
2022/04/21 00:57:34;;;;;;;5.55;5.03;;;6.70;99.90;;;;;;4957316;28;20213;-67
2022/04/21 01:00:01;;;;;;;6.18;5.68;;;6.70;99.90;;;;;;4957382;28;20497;-68
2022/04/21 01:02:47;;;;;;;5.63;5.10;;;6.60;99.90;;;;;;4957710;28;20240;-67
2022/04/21 01:05:16;;;;;;;6.07;5.53;;;6.60;99.90;;;;;;4958062;28;20344;-67
2022/04/21 01:07:43;;;;;;;6.35;5.70;;;6.60;99.90;;;;;;4957556;28;20516;-67
2022/04/21 01:10:11;;;;;;;13.07;6.32;;;6.50;99.90;;;;;;4957285;28;20255;-67
2022/04/21 01:12:38;;;;;;;6.82;6.22;;;6.50;99.90;;;;;;4956834;28;20288;-67
2022/04/21 01:15:05;;;;;;;8.40;5.55;;;6.50;99.90;;;;;;4957558;28;20232;-66
2022/04/21 01:17:33;;;;;;;7.30;5.57;;;6.50;99.90;;;;;;4957556;28;20213;-66
2022/04/21 01:20:00;;;;;;;7.38;5.57;;;6.40;99.90;;;;;;4957262;28;20205;-66
2022/04/21 01:22:29;;;;;;;8.48;5.38;;;6.40;99.90;;;;;;4957246;28;20236;-66
2022/04/21 01:24:56;;;;;;;5.90;5.38;;;6.40;99.90;;;;;;4957472;28;20208;-66
2022/04/21 01:27:26;;;;;;;6.93;6.22;;;6.40;99.90;;;;;;4956408;28;20227;-66
2022/04/21 01:29:53;;;;;;;5.60;5.18;;;6.30;99.90;;;;;;4956753;28;20243;-66
2022/04/21 01:32:20;;;;;;;5.72;5.32;;;6.30;99.90;;;;;;4957152;28;20233;-66
2022/04/21 01:34:46;;;;;;;6.72;5.72;;;6.30;99.90;;;;;;4956843;28;20261;-66
2022/04/21 01:42:42;;;;;;;7.07;6.47;;;6.30;99.90;;;;;;4956141;29;20793;-66
2022/04/21 01:45:09;;;;;;;6.70;6.05;;;6.20;99.90;;;;;;4957070;28;20209;-67
2022/04/21 01:47:36;;;;;;;9.27;6.95;;;6.20;99.90;;;;;;4956715;28;20264;-67
2022/04/21 01:50:07;;;;;;;7.57;6.88;;;6.20;99.90;;;;;;4956307;28;20209;-67
2022/04/21 01:52:37;;;;;;;8.93;7.10;;;6.20;99.90;;;;;;4956690;28;20233;-68
2022/04/21 01:55:07;;;;;;;6.68;6.13;;;6.10;99.90;;;;;;4956693;28;20225;-68
2022/04/21 01:57:34;;;;;;;7.18;6.47;;;6.10;99.90;;;;;;4956190;28;20209;-68
2022/04/21 02:00:01;;;;;;;10.27;6.55;;;6.10;99.90;;;;;;4952656;28;20551;-67
2022/04/21 02:02:29;;;;;;;7.03;6.45;;;6.10;99.90;;;;;;4952870;28;20248;-67
2022/04/21 02:04:56;;;;;;;12.93;8.60;;;6.10;99.90;;;;;;4953828;28;20205;-67
2022/04/21 02:07:24;;;;;;;9.70;8.77;;;6.10;99.90;;;;;;4954118;28;20209;-67
2022/04/21 02:09:51;;;;;;;7.82;7.00;;;6.00;99.90;;;;;;4953262;28;20225;-67
2022/04/21 02:12:21;;;;;;;8.45;6.95;;;6.00;99.90;;;;;;4953528;28;20225;-67
2022/04/21 02:14:47;;;;;;;9.05;8.15;;;6.00;99.90;;;;;;4972870;28;20262;-67
2022/04/21 02:17:14;;;;;;;7.45;6.55;;;6.00;99.90;;;;;;4972605;28;20286;-67
2022/04/21 02:19:41;;;;;;;11.07;7.30;;;6.00;99.90;;;;;;4972739;28;20263;-68
2022/04/21 02:22:08;;;;;;;9.32;6.95;;;6.00;99.90;;;;;;4973048;28;20291;-68
2022/04/21 02:24:34;;;;;;;8.90;7.95;;;6.00;99.90;;;;;;4973099;28;20212;-68
2022/04/21 02:27:01;;;;;;;8.30;7.00;;;5.90;99.90;;;;;;4973025;28;20215;-68
2022/04/21 02:29:29;;;;;;;10.88;7.03;;;5.90;99.90;;;;;;4972186;28;20215;-67
2022/04/21 02:31:55;;;;;;;11.68;8.18;;;5.90;99.90;;;;;;4972356;28;20761;-67
2022/04/21 02:34:22;;;;;;;12.25;8.15;;;5.90;99.90;;;;;;4972743;28;20380;-68
2022/04/21 02:36:49;;;;;;;8.07;6.60;;;5.90;99.90;;;;;;4972740;28;20586;-68
2022/04/21 02:39:15;;;;;;;8.02;6.65;;;5.90;99.90;;;;;;4972643;28;20699;-67
2022/04/21 02:41:42;;;;;;;11.05;6.68;;;5.90;99.90;;;;;;4972653;28;20212;-67
2022/04/21 02:44:09;;;;;;;10.50;8.05;;;5.90;99.90;;;;;;4958533;28;20213;-68
2022/04/21 02:46:37;;;;;;;8.43;7.63;;;5.90;99.90;;;;;;4953288;28;20283;-67
2022/04/21 02:49:04;;;;;;;10.77;8.00;;;5.80;99.90;;;;;;4953108;28;20621;-68
2022/04/21 02:51:31;;;;;;;12.27;8.38;;;5.80;99.90;;;;;;4952596;28;20216;-67
2022/04/21 02:59:27;;;;;;;12.48;8.65;;;5.80;99.90;;;;;;4952767;29;20634;-67
2022/04/21 03:01:55;;;;;;;14.00;9.65;;;5.80;99.90;;;;;;4952231;28;20248;-67
2022/04/21 03:04:22;;;;;;;12.95;9.10;;;5.80;99.90;;;;;;4952879;28;20552;-67
2022/04/21 03:06:49;;;;;;;13.20;9.63;;;5.70;99.90;;;;;;4952771;28;20213;-68
2022/04/21 03:09:15;;;;;;;15.98;9.73;;;5.70;99.90;;;;;;4952640;28;20212;-67
2022/04/21 03:11:42;;;;;;;15.95;10.10;;;5.70;99.90;;;;;;4952697;28;20287;-67
2022/04/21 03:14:09;;;;;;;12.50;9.07;;;5.70;99.90;;;;;;4952244;28;20320;-67
2022/04/21 03:16:36;;;;;;;11.00;8.48;;;5.70;99.90;;;;;;4952953;28;20651;-67
2022/04/21 03:19:04;;;;;;;13.95;9.38;;;5.70;99.90;;;;;;4952572;28;20220;-66
2022/04/21 03:24:21;;;;;;;15.25;10.00;;;5.70;99.90;;;;;;4952653;29;20625;-67
2022/04/21 03:26:48;;;;;;;14.75;9.75;;;5.60;99.90;;;;;;4952779;28;20216;-67
2022/04/21 03:29:15;;;;;;;11.88;9.48;;;5.60;99.90;;;;;;4952556;28;20284;-66
2022/04/21 03:31:43;;;;;;;12.00;10.40;;;5.60;99.90;;;;;;4961016;28;20213;-67
2022/04/21 03:34:13;;;;;;;14.80;9.10;;;5.60;99.90;;;;;;4957367;28;20225;-67
2022/04/21 03:36:42;;;;;;;13.35;9.15;;;5.60;99.90;;;;;;4961175;28;20224;-66
2022/04/21 03:39:09;;;;;;;11.82;10.50;;;5.60;99.90;;;;;;4954007;28;20296;-66
2022/04/21 03:41:36;;;;;;;11.68;8.70;;;5.70;99.90;;;;;;4952050;28;20215;-68
2022/04/21 03:44:03;;;;;;;11.85;9.77;;;5.60;99.90;;;;;;4951965;28;20217;-67
2022/04/21 03:46:30;;;;;;;12.68;9.63;;;5.60;99.90;;;;;;4952439;28;20658;-66
2022/04/21 03:48:57;;;;;;;11.68;8.95;;;5.60;99.90;;;;;;4952593;28;20209;-66
2022/04/21 03:51:25;;;;;;;13.00;9.07;;;5.60;99.90;;;;;;4951685;28;20548;-68
2022/04/21 03:53:52;;;;;;;18.42;9.98;;;5.60;99.90;;;;;;4951618;28;20269;-68
2022/04/21 03:56:19;;;;;;;14.27;9.95;;;5.60;99.90;;;;;;4951843;28;20209;-67
2022/04/21 03:58:45;;;;;;;14.80;9.20;;;5.60;99.90;;;;;;4951249;28;20209;-67
2022/04/21 04:01:12;;;;;;;17.23;10.85;;;5.60;99.90;;;;;;4951134;28;20291;-67
2022/04/21 04:03:39;;;;;;;14.30;10.50;;;5.60;99.90;;;;;;4951383;28;20233;-67
2022/04/21 04:10:51;;;;;;;12.07;9.73;;;5.60;99.90;;;;;;4951850;28;20272;-67
2022/04/21 04:11:39;;;;;;;14.60;10.15;;;5.60;99.90;;;;;;4950506;28;20212;-67
2022/04/21 04:14:06;;;;;;;19.45;10.45;;;5.60;99.90;;;;;;4965565;28;20236;-67
2022/04/21 04:16:34;;;;;;;20.58;10.60;;;5.60;99.90;;;;;;4970808;28;20217;-68
2022/04/21 04:19:00;;;;;;;12.65;8.52;;;5.60;99.90;;;;;;4970992;28;20645;-68
2022/04/21 04:21:27;;;;;;;13.98;10.23;;;5.60;99.90;;;;;;4969860;28;20304;-68
2022/04/21 04:23:55;;;;;;;13.60;9.70;;;5.60;99.90;;;;;;4970343;28;20224;-68
2022/04/21 04:26:22;;;;;;;14.07;9.98;;;5.70;99.90;;;;;;4970613;28;20539;-68
2022/04/21 04:28:49;;;;;;;12.18;8.60;;;5.70;99.90;;;;;;4970179;28;20208;-67
2022/04/21 04:31:16;;;;;;;9.50;8.63;;;5.70;99.90;;;;;;4970197;28;20739;-68
2022/04/21 04:33:42;;;;;;;13.15;8.35;;;5.70;99.90;;;;;;4970519;28;20240;-68
2022/04/21 04:36:10;;;;;;;14.45;9.20;;;5.80;99.90;;;;;;4970467;28;20240;-67
2022/04/21 04:38:37;;;;;;;10.88;8.90;;;5.80;99.90;;;;;;4970295;28;20208;-67
2022/04/21 04:43:46;;;;;;;11.02;8.50;;;5.90;99.90;;;;;;4959120;28;20233;-67
2022/04/21 04:48:56;;;;;;;9.93;7.45;;;6.10;99.90;;;;;;4970502;28;20216;-66
2022/04/21 04:51:23;;;;;;;10.85;8.18;;;6.20;99.90;;;;;;4970023;28;20212;-66
2022/04/21 04:53:51;;;;;;;11.00;7.18;;;6.30;99.90;;;;;;4970486;28;20323;-67
2022/04/21 04:56:19;;;;;;;9.95;8.38;;;6.30;99.90;;;;;;4971845;28;20572;-66
2022/04/21 04:58:46;;;;;;;8.95;7.18;;;6.40;99.90;;;;;;4971046;28;20220;-67
2022/04/21 05:01:13;;;;;;;12.93;8.15;;;6.50;99.90;;;;;;4970643;28;20259;-67
2022/04/21 05:03:40;;;;;;;9.52;7.72;;;6.60;99.90;;;;;;4970111;28;20379;-67
2022/04/21 05:06:07;;;;;;;9.32;7.25;;;6.70;99.90;;;;;;4970898;28;20326;-67
2022/04/21 05:08:34;;;;;;;7.28;6.65;;;6.70;99.90;;;;;;4970578;28;20282;-66
2022/04/21 05:11:03;;;;;;;10.90;5.97;;;6.70;99.90;;;;;;4970033;28;20587;-67
2022/04/21 05:13:31;;;;;;;5.72;4.82;;;6.80;99.90;;;;;;4969688;28;20297;-67
2022/04/21 05:15:57;;;;;;;8.80;6.45;;;6.90;99.90;;;;;;4970790;28;20242;-67
2022/04/21 05:18:24;;;;;;;7.65;6.20;;;6.90;99.90;;;;;;4970619;28;20527;-67
2022/04/21 05:20:52;;;;;;;4.95;4.55;;;7.00;99.90;;;;;;4969600;28;20740;-68
2022/04/21 05:23:22;;;;;;;5.80;4.97;;;7.10;99.90;;;;;;4970037;28;20327;-68
2022/04/21 05:25:49;;;;;;;6.18;5.68;;;7.10;99.90;;;;;;4970878;28;20671;-68
2022/04/21 05:28:16;;;;;;;5.90;4.93;;;7.20;99.90;;;;;;4970830;28;20708;-68
2022/04/21 05:30:58;;;;;;;4.97;4.68;;;7.20;99.90;;;;;;4969788;28;20535;-68
2022/04/21 05:33:27;;;;;;;7.93;5.38;;;7.30;99.90;;;;;;4966175;28;20592;-69
2022/04/21 05:35:55;;;;;;;5.45;4.50;;;7.40;99.90;;;;;;4973891;28;20463;-68
2022/04/21 05:38:22;;;;;;;6.07;4.63;;;7.50;99.90;;;;;;4973496;28;20219;-68
2022/04/21 05:40:50;;;;;;;6.65;4.80;;;7.60;99.90;;;;;;4973678;28;20208;-69
2022/04/21 05:43:19;;;;;;;5.13;4.57;;;7.60;99.90;;;;;;4973244;28;20229;-68
2022/04/21 05:45:48;;;;;;;6.13;4.80;;;7.70;99.90;;;;;;4973817;28;20247;-68
2022/04/21 05:48:16;;;;;;;5.55;4.55;;;7.70;99.90;;;;;;4973569;28;20213;-68
2022/04/21 05:50:45;;;;;;;6.10;4.68;;;7.70;99.90;;;;;;4973061;28;20663;-68
2022/04/21 05:53:18;;;;;;;4.68;4.25;;;7.70;99.90;;;;;;4973636;28;20260;-68
2022/04/21 05:55:45;;;;;;;6.43;4.43;;;7.80;99.90;;;;;;4973228;28;20294;-68
2022/04/21 05:58:11;;;;;;;4.72;4.22;;;7.80;99.90;;;;;;4972798;28;20302;-68
2022/04/21 06:00:38;;;;;;;6.45;4.45;;;7.80;99.90;;;;;;4973108;28;20208;-69
2022/04/21 06:03:07;;;;;;;3.90;3.70;;;7.90;99.90;;;;;;4973357;28;20263;-68
2022/04/21 06:05:34;;;;;;;4.82;4.43;;;8.00;99.90;;;;;;4974400;28;20212;-69
2022/04/21 06:08:01;;;;;;;4.15;3.88;;;8.10;99.90;;;;;;4973628;28;20208;-68
2022/04/21 06:10:27;;;;;;;3.92;3.70;;;8.10;99.90;;;;;;4972747;28;20212;-69
2022/04/21 06:12:55;;;;;;;4.85;4.45;;;8.20;99.90;;;;;;4968666;28;20228;-68
2022/04/21 06:15:21;;;;;;;4.25;3.85;;;8.20;99.90;;;;;;4955929;28;20224;-69
2022/04/21 06:17:48;;;;;;;4.25;3.95;;;8.20;99.90;;;;;;4953644;28;20224;-68
2022/04/21 06:20:16;;;;;;;5.97;4.82;;;8.30;99.90;;;;;;4953355;28;20548;-68
2022/04/21 06:22:43;;;;;;;9.25;4.28;;;8.30;99.90;;;;;;4953482;28;20229;-69
2022/04/21 06:25:10;;;;;;;4.32;3.97;;;8.40;99.90;;;;;;4953628;28;20212;-66
2022/04/21 06:27:36;;;;;;;5.60;4.00;;;8.50;99.90;;;;;;4953396;28;20574;-67
2022/04/21 06:30:03;;;;;;;3.47;3.28;;;8.60;99.90;;;;;;4953439;28;20672;-67
2022/04/21 06:32:30;;;;;;;3.88;3.40;;;8.70;99.90;;;;;;4953578;28;20718;-67
2022/04/21 06:34:57;;;;;;;3.55;3.35;;;8.80;99.90;;;;;;4953252;28;20682;-67
2022/04/21 06:37:25;;;;;;;4.28;3.95;;;8.90;99.90;;;;;;4953144;29;20296;-67
2022/04/21 06:39:52;;;;;;;4.45;4.15;;;9.00;99.90;;;;;;4953139;28;20221;-67
2022/04/21 06:42:18;;;;;;;3.80;3.33;;;9.00;99.90;;;;;;4952944;28;20239;-67
2022/04/21 06:50:13;;;;;;;3.42;3.30;;;9.10;99.90;;;;;;4952587;29;20684;-67
2022/04/21 06:52:41;;;;;;;3.40;3.28;;;9.10;99.90;;;;;;4953049;28;20233;-67
2022/04/21 06:55:08;;;;;;;3.35;3.25;;;9.20;99.90;;;;;;4952881;28;20233;-67
2022/04/21 06:57:35;;;;;;;3.38;3.08;;;9.30;99.90;;;;;;4952803;28;20201;-67
2022/04/21 07:00:03;;;;;;;3.38;3.08;;;9.40;99.90;;;;;;4952761;28;20520;-67
2022/04/21 07:02:32;;;;;;;3.22;3.13;;;9.40;99.90;;;;;;4952667;28;20630;-67
2022/04/21 07:05:03;;;;;;;3.67;3.47;;;9.50;99.90;;;;;;4967482;28;20311;-68
2022/04/21 07:07:30;;;;;;;3.55;3.35;;;9.50;99.90;;;;;;4972516;28;20276;-68
2022/04/21 07:10:00;;;;;;;2.80;2.70;;;9.70;99.90;;;;;;4972074;28;20216;-67
2022/04/21 07:12:27;;;;;;;3.50;3.35;;;9.70;99.90;;;;;;4960793;28;20236;-68
2022/04/21 07:14:54;;;;;;;4.18;3.90;;;10.00;99.90;;;;;;4952595;28;20399;-67
2022/04/21 07:17:21;;;;;;;4.28;3.97;;;10.30;99.90;;;;;;4952040;28;20201;-68
2022/04/21 07:19:49;;;;;;;3.90;3.40;;;10.60;99.90;;;;;;4952101;28;20646;-67
2022/04/21 07:22:16;;;;;;;3.05;2.95;;;10.60;99.90;;;;;;4951588;28;20611;-67
2022/04/21 07:24:42;;;;;;;3.38;3.17;;;10.60;99.90;;;;;;4963965;28;20208;-67
2022/04/21 07:27:11;;;;;;;4.10;3.90;;;10.60;99.90;;;;;;4961509;28;20201;-68
2022/04/21 07:29:38;;;;;;;3.33;3.22;;;10.70;99.90;;;;;;4955623;28;20240;-68
2022/04/21 07:32:05;;;;;;;3.70;3.50;;;10.90;99.90;;;;;;4935533;29;20240;-68
2022/04/21 07:34:32;;;;;;;3.42;3.22;;;11.00;99.90;;;;;;4952079;28;20205;-68
2022/04/21 07:36:59;;;;;;;3.65;3.30;;;11.10;99.90;;;;;;4952123;28;20327;-68
2022/04/21 07:39:26;;;;;;;3.53;3.25;;;11.20;99.90;;;;;;4967191;28;20245;-68
2022/04/21 07:41:52;;;;;;;3.65;3.45;;;11.30;99.90;;;;;;4968613;28;20744;-69
2022/04/21 07:44:21;;;;;;;11.57;3.90;;;11.30;99.90;;;;;;4960760;28;20237;-68
2022/04/21 07:46:47;;;;;;;3.28;3.08;;;11.40;99.90;;;;;;4952337;28;20254;-68
2022/04/21 07:54:39;;;;;;;4.20;3.90;;;11.40;99.90;;;;;;4951598;28;20217;-68
2022/04/21 07:57:06;;;;;;;4.32;3.75;;;11.50;99.90;;;;;;4950300;28;20670;-68
2022/04/21 07:59:35;;;;;;;4.60;4.05;;;11.50;99.90;;;;;;4951417;28;20714;-67
2022/04/21 08:02:03;;;;;;;3.00;2.90;;;11.70;99.90;;;;;;4951191;28;20233;-68
2022/04/21 08:04:30;;;;;;;2.67;2.58;;;11.80;99.90;;;;;;4959111;28;20247;-69
2022/04/21 08:06:58;;;;;;;3.70;2.72;;;11.80;99.90;;;;;;4956967;28;20288;-68
2022/04/21 08:09:24;;;;;;;2.92;2.83;;;11.80;99.90;;;;;;4965987;28;20212;-67
2022/04/21 08:11:51;;;;;;;2.63;2.53;;;11.90;99.90;;;;;;4950179;28;20209;-67
2022/04/21 08:14:18;;;;;;;4.32;2.63;;;11.90;99.90;;;;;;4950220;28;20209;-67
2022/04/21 08:16:46;;;;;;;3.05;2.90;;;11.90;99.90;;;;;;4951594;28;20721;-66
2022/04/21 08:19:12;;;;;;;2.70;2.60;;;11.90;99.90;;;;;;4951428;28;20213;-68
2022/04/21 08:21:39;;;;;;;2.72;2.50;;;12.10;99.90;;;;;;4936664;28;20217;-68
2022/04/21 08:32:43;;;;;;;3.03;2.93;;;12.30;99.90;;;;;;4909985;29;20501;-68
2022/04/21 08:35:13;;;;;;;3.60;2.90;;;12.40;99.90;;;;;;4911752;29;20494;-69
2022/04/21 08:37:40;;;;;;;2.27;2.17;;;12.50;99.90;;;;;;4914866;29;20962;-68
2022/04/21 08:40:10;;;;;;;3.30;3.10;;;12.60;99.90;;;;;;4943716;29;20518;-68
2022/04/21 08:42:38;;;;;;;3.17;2.97;;;12.70;99.90;;;;;;4950380;28;21014;-68
2022/04/21 08:45:06;;;;;;;2.80;2.70;;;12.90;99.90;;;;;;4951956;28;20464;-68
2022/04/21 08:47:34;;;;;;;3.70;3.60;;;12.90;99.90;;;;;;4951622;28;20563;-69
2022/04/21 08:50:05;;;;;;;3.10;2.90;;;12.90;99.90;;;;;;4951131;28;20971;-67
2022/04/21 08:52:33;;;;;;;2.70;2.60;;;12.90;99.90;;;;;;4952095;28;20515;-66
2022/04/21 08:54:59;;;;;;;2.80;2.63;;;13.00;99.90;;;;;;4949694;28;20515;-66
2022/04/21 08:57:29;;;;;;;7.00;2.57;;;13.10;99.90;;;;;;4963408;28;20523;-67
2022/04/21 08:59:56;;;;;;;3.40;3.10;;;13.30;99.90;;;;;;4958594;28;20473;-68
2022/04/21 09:02:23;;;;;;;2.70;2.60;;;13.40;99.90;;;;;;4964995;28;20523;-68
2022/04/21 09:04:51;;;;;;;3.00;2.80;;;13.50;99.90;;;;;;4953486;28;20483;-68
2022/04/21 09:07:20;;;;;;;2.57;2.37;;;13.50;99.90;;;;;;4961862;28;20461;-66
2022/04/21 09:10:02;;;;;;;3.17;2.93;;;13.70;99.90;;;;;;4971651;28;20472;-67
2022/04/21 09:12:29;;;;;;;1.80;1.70;;;13.80;99.90;;;;;;4960406;28;20496;-67
2022/04/21 09:14:57;;;;;;;2.57;2.47;;;13.90;99.90;;;;;;4962752;28;20548;-67
2022/04/21 09:17:24;;;;;;;2.67;2.50;;;14.00;99.90;;;;;;4954941;28;20496;-68
2022/04/21 09:19:59;;;;;;;3.33;2.40;;;14.10;99.90;;;;;;4965321;28;20470;-67
2022/04/21 09:22:26;;;;;;;2.90;2.80;;;14.00;99.90;;;;;;4961825;28;20488;-68
2022/04/21 09:24:53;;;;;;;3.30;2.20;;;13.90;99.90;;;;;;4957671;28;20472;-68
2022/04/21 09:27:20;;;;;;;2.70;2.63;;;13.80;99.90;;;;;;4964542;28;20571;-68
2022/04/21 09:29:47;;;;;;;2.70;2.50;;;13.90;99.90;;;;;;4954294;28;20464;-68
2022/04/21 09:32:17;;;;;;;2.47;2.40;;;13.90;99.90;;;;;;4961283;28;20495;-68
2022/04/21 09:34:48;;;;;;;1.97;1.87;;;13.80;99.90;;;;;;4963814;28;20950;-68
2022/04/21 09:37:20;;;;;;;2.90;2.90;;;13.80;99.90;;;;;;4955831;28;20559;-68
2022/04/21 09:39:50;;;;;;;2.70;2.40;;;14.00;99.90;;;;;;4961450;28;20508;-68
2022/04/21 09:42:24;;;;;;;2.63;2.53;;;14.20;99.90;;;;;;4954478;28;20500;-68
2022/04/21 09:47:35;;;;;;;2.40;2.30;;;14.40;99.90;;;;;;4955067;28;20460;-69
2022/04/21 09:50:12;;;;;;;2.40;2.30;;;14.50;99.90;;;;;;4953817;28;20488;-65
2022/04/21 09:52:47;;;;;;;2.70;2.60;;;14.80;99.90;;;;;;4953392;28;20648;-68
2022/04/21 09:55:21;;;;;;;2.27;2.17;;;14.80;99.90;;;;;;4954190;28;20826;-69
2022/04/21 09:57:51;;;;;;;2.67;2.47;;;15.00;99.90;;;;;;4960999;28;20464;-68
2022/04/21 10:00:21;;;;;;;3.87;2.50;;;15.20;99.90;;;;;;4954777;28;20464;-69
2022/04/21 10:02:49;;;;;;;2.30;2.20;;;15.40;99.90;;;;;;4953699;28;20570;-68
2022/04/21 10:05:17;;;;;;;3.03;2.87;;;15.40;99.90;;;;;;4953886;28;20468;-68
2022/04/21 10:07:46;;;;;;;2.70;2.60;;;15.40;99.90;;;;;;4953842;28;20472;-68
2022/04/21 10:10:13;;;;;;;2.33;2.13;;;15.40;99.90;;;;;;4952846;28;20886;-68
2022/04/21 10:12:41;;;;;;;2.60;2.53;;;15.40;99.90;;;;;;4953020;28;20587;-68
2022/04/21 10:15:10;;;;;;;3.37;3.27;;;15.30;99.90;;;;;;4953356;28;20472;-67
2022/04/21 10:17:37;;;;;;;2.97;2.70;;;15.20;99.90;;;;;;4953214;28;20520;-68
2022/04/21 10:20:05;;;;;;;3.10;2.90;;;15.30;99.90;;;;;;4952275;28;20468;-67
2022/04/21 10:22:34;;;;;;;6.10;2.67;;;15.10;99.90;;;;;;4952284;28;20488;-68
2022/04/21 10:25:03;;;;;;;6.17;3.03;;;15.10;99.90;;;;;;4965440;28;20966;-68
2022/04/21 10:27:38;;;;;;;2.40;2.40;;;15.10;99.90;;;;;;4956274;28;20464;-68
2022/04/21 10:30:16;;;;;;;2.63;2.50;;;15.20;99.90;;;;;;4956260;28;20456;-68
2022/04/21 10:32:47;;;;;;;2.70;2.60;;;15.30;99.90;;;;;;4953373;29;20503;-67
2022/04/21 10:35:48;;;;;;;3.23;2.27;;;15.30;99.90;;;;;;4953744;28;20819;-66
2022/04/21 10:38:22;;;;;;;2.87;2.30;;;15.40;99.90;;;;;;4953172;28;20495;-66
2022/04/21 10:41:06;;;;;;;2.47;2.33;;;15.30;99.90;;;;;;4952724;29;21059;-66
2022/04/21 10:44:02;;;;;;;2.30;2.20;;;15.10;99.90;;;;;;4952646;28;20580;-65
2022/04/21 10:46:29;;;;;;;2.67;2.50;;;14.90;99.90;;;;;;4953609;28;20484;-68
2022/04/21 10:48:56;;;;;;;2.60;2.40;;;14.80;99.90;;;;;;4953124;28;20464;-68
2022/04/21 10:58:00;;;;;;;2.60;2.43;;;14.50;99.90;;;;;;4952383;29;20460;-67
2022/04/21 11:00:28;;;;;;;2.73;2.63;;;14.50;99.90;;;;;;4952721;29;20460;-67
2022/04/21 11:03:03;;;;;;;1.90;1.80;;;14.50;99.90;;;;;;4965919;28;20491;-67
2022/04/21 11:05:31;;;;;;;2.37;2.23;;;14.50;99.90;;;;;;4972166;28;20467;-67
2022/04/21 11:08:00;;;;;;;2.13;2.03;;;14.50;99.90;;;;;;4971836;28;20484;-68
2022/04/21 11:10:28;;;;;;;3.43;2.93;;;14.60;99.90;;;;;;4971461;28;20466;-68
2022/04/21 11:12:55;;;;;;;2.57;2.47;;;14.50;99.90;;;;;;4971005;28;20483;-66
2022/04/21 11:15:36;;;;;;;2.43;2.33;;;14.60;99.90;;;;;;4971984;28;20473;-66
2022/04/21 11:18:07;;;;;;;3.93;2.40;;;14.70;99.90;;;;;;4971682;28;20853;-69
2022/04/21 11:20:35;;;;;;;2.40;2.30;;;14.70;99.90;;;;;;4971095;28;20464;-67
2022/04/21 11:23:01;;;;;;;1.97;1.87;;;14.80;99.90;;;;;;4971797;28;20591;-66
2022/04/21 11:25:32;;;;;;;4.40;2.13;;;15.00;99.90;;;;;;4971696;28;20466;-67
2022/04/21 11:28:00;;;;;;;2.47;2.47;;;15.00;99.90;;;;;;4971121;28;20491;-67
2022/04/21 11:30:29;;;;;;;1.80;1.70;;;15.10;99.90;;;;;;4971043;28;20476;-67
2022/04/21 11:32:57;;;;;;;3.30;2.33;;;15.10;99.90;;;;;;4971434;28;20895;-67
2022/04/21 11:35:25;;;;;;;2.07;2.07;;;15.00;99.90;;;;;;4971611;28;20471;-67
2022/04/21 11:37:56;;;;;;;2.03;1.83;;;15.10;99.90;;;;;;4971599;28;20483;-66
2022/04/21 11:40:32;;;;;;;1.70;1.70;;;15.10;99.90;;;;;;4971417;28;20543;-67
2022/04/21 11:43:00;;;;;;;2.43;2.40;;;15.10;99.90;;;;;;4970763;28;20483;-66
2022/04/21 11:45:28;;;;;;;2.37;2.27;;;15.00;99.90;;;;;;4971443;28;20468;-66
2022/04/21 11:47:57;;;;;;;2.50;2.40;;;15.10;99.90;;;;;;4971314;28;20530;-67
2022/04/21 11:50:25;;;;;;;1.77;1.70;;;15.10;99.90;;;;;;4971090;28;20937;-67
2022/04/21 11:52:53;;;;;;;3.23;2.00;;;15.00;99.90;;;;;;4958998;28;20632;-67
2022/04/21 11:55:21;;;;;;;1.87;1.77;;;15.00;99.90;;;;;;4971477;28;20496;-68
2022/04/21 11:57:49;;;;;;;2.47;2.27;;;14.90;99.90;;;;;;4970707;28;20499;-67
2022/04/21 12:00:17;;;;;;;2.60;2.40;;;14.90;99.90;;;;;;4970647;28;20507;-68
2022/04/21 12:08:15;;;;;;;3.30;3.07;;;15.40;99.90;;;;;;4970939;28;20534;-67
2022/04/21 12:10:42;;;;;;;2.50;2.40;;;15.70;99.90;;;;;;4970368;28;20949;-68
2022/04/21 12:13:10;;;;;;;2.70;2.53;;;15.70;99.90;;;;;;4970255;28;20684;-67
2022/04/21 12:15:39;;;;;;;4.33;2.87;;;15.60;99.90;;;;;;4971208;28;21034;-67
2022/04/21 12:18:06;;;;;;;3.00;2.57;;;15.60;99.90;;;;;;4970521;28;20488;-67
2022/04/21 12:20:34;;;;;;;3.23;2.73;;;15.70;99.90;;;;;;4970440;28;20475;-67
2022/04/21 12:23:01;;;;;;;4.63;3.03;;;15.80;99.90;;;;;;4968514;28;20484;-67
2022/04/21 12:25:31;;;;;;;3.47;3.17;;;15.80;99.90;;;;;;4970526;28;20471;-67
2022/04/21 12:28:03;;;;;;;3.00;2.87;;;15.60;99.90;;;;;;4969919;28;20585;-67
2022/04/21 12:30:30;;;;;;;2.50;2.40;;;15.60;99.90;;;;;;4970430;28;20503;-68
2022/04/21 12:32:57;;;;;;;3.07;2.90;;;15.50;99.90;;;;;;4970421;28;20968;-67
2022/04/21 12:35:44;;;;;;;3.40;3.10;;;15.50;99.90;;;;;;4970702;28;20474;-68
2022/04/21 12:40:59;;;;;;;3.03;2.83;;;15.50;99.90;;;;;;4969938;28;20828;-67
2022/04/21 12:43:26;;;;;;;3.60;3.30;;;15.50;99.90;;;;;;4969427;28;20531;-68
2022/04/21 12:45:53;;;;;;;3.17;3.07;;;15.40;99.90;;;;;;4970732;28;20514;-69
2022/04/21 12:48:23;;;;;;;3.70;3.40;;;15.30;99.90;;;;;;4970393;28;20471;-69
2022/04/21 12:50:53;;;;;;;4.87;3.73;;;15.40;99.90;;;;;;4970669;28;20475;-68
2022/04/21 12:53:30;;;;;;;4.57;4.10;;;15.40;99.90;;;;;;4972056;28;21008;-68
2022/04/21 12:56:09;;;;;;;3.47;3.30;;;15.50;99.90;;;;;;4973789;28;20585;-68
2022/04/21 12:58:36;;;;;;;5.43;3.80;;;15.60;99.90;;;;;;4973121;28;20980;-69
2022/04/21 13:01:05;;;;;;;4.00;3.80;;;15.70;99.90;;;;;;4972862;28;20491;-68
2022/04/21 13:03:33;;;;;;;3.80;3.57;;;15.80;99.90;;;;;;4960090;28;20989;-69
2022/04/21 13:06:01;;;;;;;4.00;3.73;;;15.70;99.90;;;;;;4951363;28;20471;-68
2022/04/21 13:08:29;;;;;;;3.40;3.20;;;15.60;99.90;;;;;;4951170;28;20787;-69
2022/04/21 13:10:56;;;;;;;5.00;4.50;;;15.40;99.90;;;;;;4950948;28;20464;-68
2022/04/21 13:13:24;;;;;;;3.87;3.20;;;15.40;99.90;;;;;;4950239;28;20535;-69
2022/04/21 13:15:51;;;;;;;4.30;3.50;;;15.50;99.90;;;;;;4951409;28;20495;-67
2022/04/21 13:18:18;;;;;;;4.07;3.77;;;15.30;99.90;;;;;;4951212;28;20855;-68
2022/04/21 13:23:31;;;;;;;4.53;4.10;;;15.40;99.90;;;;;;4950715;29;20909;-68
2022/04/21 13:26:00;;;;;;;4.33;3.90;;;15.40;99.90;;;;;;4950805;28;20468;-68
2022/04/21 13:28:27;;;;;;;4.63;4.13;;;15.40;99.90;;;;;;4950153;28;20543;-68
2022/04/21 13:33:34;;;;;;;6.40;4.67;;;15.40;99.90;;;;;;4950143;29;20487;-68
2022/04/21 13:36:01;;;;;;;5.60;5.10;;;15.40;99.90;;;;;;4950970;28;20741;-68
2022/04/21 13:38:28;;;;;;;4.63;4.33;;;15.40;99.90;;;;;;4950347;28;20519;-68
2022/04/21 13:40:55;;;;;;;4.67;4.33;;;15.30;99.90;;;;;;4950084;28;20469;-68
2022/04/21 13:43:22;;;;;;;5.20;4.70;;;15.30;99.90;;;;;;4949848;28;20530;-68
2022/04/21 13:45:49;;;;;;;5.00;4.47;;;15.30;99.90;;;;;;4950810;28;20556;-68
2022/04/21 13:48:17;;;;;;;4.30;3.93;;;15.20;99.90;;;;;;4950550;28;20963;-67
2022/04/21 13:50:43;;;;;;;6.07;4.10;;;15.20;99.90;;;;;;4949897;28;20488;-67
2022/04/21 13:53:10;;;;;;;5.70;3.83;;;15.20;99.90;;;;;;4950247;28;20481;-68
2022/04/21 13:55:36;;;;;;;4.20;3.97;;;15.20;99.90;;;;;;4971654;28;20463;-68
2022/04/21 13:58:05;;;;;;;4.17;3.90;;;15.20;99.90;;;;;;4972355;28;20490;-67
2022/04/21 14:00:31;;;;;;;4.30;4.00;;;15.10;99.90;;;;;;4972996;28;20766;-68
2022/04/21 14:02:58;;;;;;;5.67;4.23;;;15.00;99.90;;;;;;4972808;28;20491;-69